sim
Sign-in with your pilot id or email,
or register
Callsign
Passwort

Schedule Details

Flight Number: DLH412
Departure: Munich Airport (EDDM) at 14:40
Arrival: New York Newark Liberty International Airport (KEWR) at 00:05
Route: Lufthansa Passenger Schedule. Enter filed route here before submitting Pirep.

Weather Information
Getting current METAR information for EDDM 282220Z VRB02KT CAVOK 08/07 Q1015 NOSIG
Getting current METAR information for KEWR 282151Z 16008KT 10SM FEW025 FEW060 25/19 A2987 RMK AO2 SLP115 T02500194

Schedule Frequency

Route Map